createdAt,value
2018-11-06T00:00:51.266Z,11.47
2018-11-06T00:03:25.251Z,10.87
2018-11-06T00:05:59.319Z,10.90
2018-11-06T00:08:33.578Z,10.50
2018-11-06T00:11:08.806Z,10.50
2018-11-06T00:13:43.074Z,11.27
2018-11-06T00:16:17.251Z,11.63
2018-11-06T00:18:51.438Z,10.90
2018-11-06T00:21:25.797Z,10.13
2018-11-06T00:24:00.906Z,10.70
2018-11-06T00:26:35.523Z,10.40
2018-11-06T00:29:09.872Z,10.17
2018-11-06T00:31:44.894Z,11.23
2018-11-06T00:34:18.979Z,10.30
2018-11-06T00:36:53.082Z,10.20
2018-11-06T00:39:27.392Z,11.10
2018-11-06T00:42:01.397Z,10.30
2018-11-06T00:44:35.511Z,10.37
2018-11-06T00:47:09.800Z,10.60
2018-11-06T00:49:43.888Z,10.50
2018-11-06T00:52:17.853Z,9.77
2018-11-06T00:54:52.731Z,10.60
2018-11-06T00:57:26.991Z,10.73
2018-11-06T01:00:00.998Z,10.53
2018-11-06T01:02:35.416Z,10.80
2018-11-06T01:05:09.782Z,11.10
2018-11-06T01:07:43.968Z,10.27
2018-11-06T01:10:18.047Z,10.87
2018-11-06T01:12:52.315Z,10.50
2018-11-06T01:15:27.177Z,10.80
2018-11-06T01:18:02.162Z,11.37
2018-11-06T01:20:36.478Z,10.00
2018-11-06T01:23:10.890Z,11.37
2018-11-06T01:25:45.875Z,10.80
2018-11-06T01:28:20.239Z,10.27
2018-11-06T01:30:54.321Z,10.10
2018-11-06T01:33:28.314Z,9.83
2018-11-06T01:36:02.491Z,10.00
2018-11-06T01:38:36.627Z,10.53
2018-11-06T01:41:10.715Z,10.60
2018-11-06T01:43:44.939Z,10.03
2018-11-06T01:46:19.090Z,10.27
2018-11-06T01:48:53.518Z,9.67
2018-11-06T01:51:28.644Z,10.67
2018-11-06T01:54:02.823Z,9.90
2018-11-06T01:56:36.956Z,10.10
2018-11-06T01:59:11.240Z,9.67
2018-11-06T02:01:45.457Z,10.37
2018-11-06T02:04:20.152Z,10.07
2018-11-06T02:06:54.527Z,10.30
2018-11-06T02:09:28.855Z,9.40
2018-11-06T02:12:02.976Z,9.07
2018-11-06T02:14:37.311Z,9.40
2018-11-06T02:17:11.247Z,9.67
2018-11-06T02:19:46.272Z,10.33
2018-11-06T02:22:20.419Z,10.37
2018-11-06T02:24:54.687Z,9.40
2018-11-06T02:27:30.666Z,10.63
2018-11-06T02:30:04.930Z,8.97
2018-11-06T02:32:39.090Z,9.80
2018-11-06T02:35:13.162Z,10.43
2018-11-06T02:37:47.255Z,10.67
2018-11-06T02:40:21.310Z,10.67
2018-11-06T02:42:56.226Z,10.13
2018-11-06T02:45:30.419Z,10.57
2018-11-06T02:48:05.246Z,9.57
2018-11-06T02:50:39.336Z,10.20
2018-11-06T02:53:13.493Z,9.90
2018-11-06T02:55:47.858Z,10.00
2018-11-06T02:58:22.304Z,9.63
2018-11-06T03:00:57.312Z,8.57
2018-11-06T03:03:31.438Z,10.17
2018-11-06T03:06:05.781Z,10.40
2018-11-06T03:08:39.992Z,10.73
2018-11-06T03:11:14.210Z,10.30
2018-11-06T03:13:49.184Z,11.60
2018-11-06T03:16:23.423Z,11.07
2018-11-06T03:18:57.754Z,11.00
2018-11-06T03:21:32.030Z,10.07
2018-11-06T03:24:05.948Z,10.23
2018-11-06T03:26:40.250Z,10.17
2018-11-06T03:29:14.708Z,10.07
2018-11-06T03:31:48.877Z,10.40
2018-11-06T03:34:23.407Z,9.57
2018-11-06T03:36:57.741Z,10.07
2018-11-06T03:39:31.904Z,10.33
2018-11-06T03:42:06.214Z,10.33
2018-11-06T03:44:41.249Z,10.97
2018-11-06T03:47:15.584Z,11.23
2018-11-06T03:49:49.804Z,10.77
2018-11-06T03:52:23.821Z,11.07
2018-11-06T03:54:57.846Z,10.70
2018-11-06T03:57:31.826Z,12.00
2018-11-06T04:00:05.836Z,10.93
2018-11-06T04:02:40.653Z,11.33
2018-11-06T04:05:14.557Z,11.73
2018-11-06T04:07:48.524Z,12.20
2018-11-06T04:10:22.559Z,10.67
2018-11-06T04:12:57.329Z,11.40
2018-11-06T04:15:31.165Z,11.10
2018-11-06T04:18:05.249Z,10.00
2018-11-06T04:20:39.230Z,10.80
2018-11-06T04:23:13.310Z,11.53
2018-11-06T04:25:47.377Z,10.23
2018-11-06T04:28:21.370Z,11.60
2018-11-06T04:30:55.328Z,10.00
2018-11-06T04:33:29.348Z,10.53
2018-11-06T04:36:03.314Z,11.07
2018-11-06T04:38:37.385Z,10.37
2018-11-06T04:41:11.386Z,10.83
2018-11-06T04:43:46.196Z,10.90
2018-11-06T04:46:20.296Z,11.00
2018-11-06T04:48:54.281Z,10.23
2018-11-06T04:51:29.171Z,10.70
2018-11-06T04:54:03.134Z,10.63
2018-11-06T04:56:37.234Z,11.57
2018-11-06T04:59:11.314Z,11.47
2018-11-06T05:01:45.386Z,10.57
2018-11-06T05:04:20.213Z,10.00
2018-11-06T05:06:54.382Z,10.03
2018-11-06T05:09:28.453Z,10.50
2018-11-06T05:12:02.518Z,10.43
2018-11-06T05:14:36.551Z,9.47
2018-11-06T05:17:11.421Z,10.53
2018-11-06T05:19:45.471Z,10.13
2018-11-06T05:22:20.358Z,10.43
2018-11-06T05:24:55.205Z,10.30
2018-11-06T05:27:29.310Z,10.73
2018-11-06T05:30:03.383Z,9.77
2018-11-06T05:32:37.558Z,9.47
2018-11-06T05:35:11.642Z,9.33
2018-11-06T05:37:45.687Z,9.53
2018-11-06T05:43:28.295Z,12.25
2018-11-06T05:46:02.597Z,10.83
2018-11-06T05:48:36.744Z,7.57
2018-11-06T05:51:10.849Z,7.77
2018-11-06T05:53:45.671Z,8.03
2018-11-06T05:56:19.737Z,7.43
2018-11-06T05:58:53.864Z,7.93
2018-11-06T06:01:27.869Z,7.77
2018-11-06T06:04:01.792Z,8.43
2018-11-06T06:06:35.901Z,9.47
2018-11-06T06:09:09.966Z,8.90
2018-11-06T06:11:43.931Z,8.57
2018-11-06T06:14:17.860Z,8.03
2018-11-06T06:16:52.755Z,8.33
2018-11-06T06:19:26.786Z,9.87
2018-11-06T06:22:00.910Z,8.70
2018-11-06T06:24:36.137Z,9.67
2018-11-06T06:27:10.837Z,9.37
2018-11-06T06:29:48.727Z,9.63
2018-11-06T06:32:24.085Z,8.53
2018-11-06T06:34:58.987Z,9.83
2018-11-06T06:37:32.850Z,9.73
2018-11-06T06:40:06.971Z,8.90
2018-11-06T06:42:41.069Z,10.23
2018-11-06T06:45:15.228Z,9.80
2018-11-06T06:47:49.532Z,9.33
2018-11-06T06:50:23.685Z,10.80
2018-11-06T06:52:57.778Z,10.23
2018-11-06T06:55:32.003Z,9.27
2018-11-06T06:58:06.074Z,10.30
2018-11-06T07:00:40.299Z,10.23
2018-11-06T07:03:14.342Z,9.30
2018-11-06T07:05:48.455Z,9.83
2018-11-06T07:08:22.539Z,8.53
2018-11-06T07:10:56.464Z,8.70
2018-11-06T07:13:30.571Z,7.50
2018-11-06T07:16:05.435Z,8.10
2018-11-06T07:18:40.460Z,7.77
2018-11-06T07:21:15.282Z,7.30
2018-11-06T07:23:49.246Z,8.33
2018-11-06T07:26:24.122Z,7.23
2018-11-06T07:28:58.327Z,7.27
2018-11-06T07:31:32.365Z,7.90
2018-11-06T07:34:07.123Z,7.07
2018-11-06T07:36:41.229Z,6.90
2018-11-06T07:39:15.294Z,7.53
2018-11-06T07:41:49.303Z,7.77
2018-11-06T07:44:23.366Z,7.27
2018-11-06T07:46:58.013Z,7.80
2018-11-06T07:49:32.046Z,8.00
2018-11-06T07:52:06.141Z,9.07
2018-11-06T07:54:40.067Z,8.30
2018-11-06T07:57:14.189Z,8.50
2018-11-06T07:59:49.022Z,8.20
2018-11-06T08:02:23.113Z,9.03
2018-11-06T08:04:57.154Z,8.27
2018-11-06T08:07:31.282Z,8.40
2018-11-06T08:10:13.724Z,8.33
2018-11-06T08:12:47.670Z,8.37
2018-11-06T08:15:21.773Z,8.70
2018-11-06T08:17:56.601Z,9.10
2018-11-06T08:20:30.770Z,9.40
2018-11-06T08:23:04.742Z,9.00
2018-11-06T08:25:39.559Z,8.37
2018-11-06T08:28:13.544Z,7.70
2018-11-06T08:30:47.621Z,8.53
2018-11-06T08:33:21.543Z,9.30
2018-11-06T08:35:55.621Z,8.73
2018-11-06T08:38:36.227Z,10.83
2018-11-06T08:41:14.244Z,9.40
2018-11-06T08:43:48.249Z,10.40
2018-11-06T08:46:22.366Z,10.00
2018-11-06T08:48:56.341Z,9.83
2018-11-06T08:51:30.412Z,9.60
2018-11-06T08:54:05.257Z,9.67
2018-11-06T08:56:39.297Z,10.17
2018-11-06T08:59:14.052Z,10.07
2018-11-06T09:01:48.089Z,9.00
2018-11-06T09:04:22.134Z,10.03
2018-11-06T09:06:56.132Z,9.83
2018-11-06T09:09:30.251Z,10.80
2018-11-06T09:12:04.348Z,9.63
2018-11-06T09:14:39.195Z,10.23
2018-11-06T09:17:13.270Z,10.07
2018-11-06T09:19:47.298Z,10.87
2018-11-06T09:22:21.291Z,10.60
2018-11-06T09:24:55.359Z,10.97
2018-11-06T09:27:29.393Z,11.23
2018-11-06T09:30:03.578Z,11.47
2018-11-06T09:32:37.634Z,10.57
2018-11-06T09:35:11.742Z,10.73
2018-11-06T09:37:45.824Z,10.13
2018-11-06T09:40:19.859Z,10.97
2018-11-06T09:42:53.803Z,10.67
2018-11-06T09:45:27.866Z,11.00
2018-11-06T09:48:01.917Z,11.47
2018-11-06T09:50:36.776Z,10.77
2018-11-06T09:53:11.711Z,11.30
2018-11-06T09:55:45.815Z,11.10
2018-11-06T09:58:19.733Z,10.80
2018-11-06T10:00:53.828Z,10.87
2018-11-06T10:03:27.974Z,10.10
2018-11-06T10:06:01.982Z,10.43
2018-11-06T10:08:35.974Z,10.47
2018-11-06T10:11:10.021Z,10.87
2018-11-06T10:13:44.090Z,10.97
2018-11-06T10:16:18.130Z,10.33
2018-11-06T10:18:52.213Z,9.33
2018-11-06T10:21:26.245Z,10.70
2018-11-06T10:24:00.237Z,9.33
2018-11-06T10:26:34.351Z,9.17
2018-11-06T10:29:08.377Z,10.27
2018-11-06T10:31:42.470Z,10.67
2018-11-06T10:34:16.600Z,10.10
2018-11-06T10:36:50.771Z,10.30
2018-11-06T10:39:24.834Z,11.10
2018-11-06T10:41:58.766Z,9.97
2018-11-06T10:44:33.581Z,10.57
2018-11-06T10:47:07.678Z,10.63
2018-11-06T10:49:41.609Z,10.13
2018-11-06T10:52:15.688Z,10.90
2018-11-06T10:54:49.790Z,9.97
2018-11-06T10:57:23.790Z,10.93
2018-11-06T10:59:57.806Z,10.60
2018-11-06T11:02:31.811Z,9.93
2018-11-06T11:05:06.603Z,11.47
2018-11-06T11:07:40.597Z,10.30
2018-11-06T11:10:14.712Z,10.13
2018-11-06T11:12:48.821Z,10.60
2018-11-06T11:15:22.939Z,10.27
2018-11-06T11:17:57.021Z,10.67
2018-11-06T11:20:30.976Z,10.73
2018-11-06T11:23:05.070Z,10.70
2018-11-06T11:25:38.974Z,9.90
2018-11-06T11:28:12.866Z,11.00
2018-11-06T11:30:46.809Z,10.53
2018-11-06T11:33:20.950Z,10.73
2018-11-06T11:35:55.026Z,10.20
2018-11-06T11:38:29.055Z,10.27
2018-11-06T11:41:03.054Z,10.03
2018-11-06T11:43:37.151Z,10.20
2018-11-06T11:46:11.047Z,10.87
2018-11-06T11:48:45.608Z,10.83
2018-11-06T11:51:19.541Z,10.33
2018-11-06T11:53:53.740Z,8.93
2018-11-06T11:56:27.874Z,9.37
2018-11-06T11:59:01.962Z,10.30
2018-11-06T12:01:36.013Z,9.60
2018-11-06T12:04:10.090Z,8.63
2018-11-06T12:06:45.032Z,10.17
2018-11-06T12:09:19.190Z,9.30
2018-11-06T12:11:54.055Z,10.00
2018-11-06T12:14:28.119Z,10.07
2018-11-06T12:17:02.179Z,8.90
2018-11-06T12:19:36.190Z,10.20
2018-11-06T12:22:10.227Z,9.17
2018-11-06T12:24:44.528Z,7.97
2018-11-06T12:27:18.527Z,8.10
2018-11-06T12:29:52.879Z,8.40
2018-11-06T12:32:27.081Z,8.60
2018-11-06T12:35:01.584Z,8.10
2018-11-06T12:40:17.072Z,7.70
2018-11-06T12:42:51.288Z,8.93
2018-11-06T12:45:25.184Z,10.37
2018-11-06T12:48:00.566Z,7.93
2018-11-06T12:50:35.084Z,8.03
2018-11-06T12:53:09.382Z,6.73
2018-11-06T12:55:43.365Z,6.40
2018-11-06T12:58:17.626Z,8.70
2018-11-06T13:00:51.704Z,6.50
2018-11-06T13:03:25.869Z,7.00
2018-11-06T13:05:59.849Z,6.67
2018-11-06T13:08:34.230Z,6.50
2018-11-06T13:11:08.497Z,6.10
2018-11-06T13:13:42.519Z,6.68
2018-11-06T13:16:16.698Z,7.07
2018-11-06T13:18:50.829Z,6.27
2018-11-06T13:21:25.561Z,7.00
2018-11-06T13:24:00.090Z,7.30
2018-11-06T13:26:34.757Z,6.50
2018-11-06T13:29:08.805Z,7.03
2018-11-06T13:31:43.745Z,6.67
2018-11-06T13:34:17.845Z,6.75
2018-11-06T13:36:51.914Z,6.72
2018-11-06T13:39:25.889Z,5.85
2018-11-06T13:42:00.901Z,5.90
2018-11-06T13:44:35.350Z,6.77
2018-11-06T13:47:09.685Z,6.00
2018-11-06T13:49:46.873Z,6.07
2018-11-06T13:52:21.659Z,6.60
2018-11-06T13:54:55.674Z,6.03
2018-11-06T13:57:29.855Z,6.12
2018-11-06T14:00:04.149Z,6.68
2018-11-06T14:02:46.872Z,6.30
2018-11-06T14:05:20.879Z,5.85
2018-11-06T14:07:58.206Z,6.60
2018-11-06T14:10:32.383Z,6.80
2018-11-06T14:13:06.473Z,6.97
2018-11-06T14:15:40.399Z,6.30
2018-11-06T14:18:14.413Z,6.28
2018-11-06T14:20:52.699Z,6.40
2018-11-06T14:23:27.953Z,5.90
2018-11-06T14:26:03.836Z,6.60
2018-11-06T14:28:37.911Z,6.70
2018-11-06T14:31:12.045Z,6.43
2018-11-06T14:33:46.106Z,5.73
2018-11-06T14:36:20.047Z,6.32
2018-11-06T14:38:54.165Z,6.20
2018-11-06T14:41:28.192Z,6.10
2018-11-06T14:44:04.082Z,6.53
2018-11-06T14:46:40.833Z,5.93
2018-11-06T14:49:16.159Z,5.93
2018-11-06T14:51:52.604Z,6.60
2018-11-06T14:54:33.979Z,5.77
2018-11-06T14:57:08.124Z,6.30
2018-11-06T14:59:48.205Z,6.40
2018-11-06T15:02:32.405Z,5.93
2018-11-06T15:05:17.132Z,6.03
2018-11-06T15:07:51.804Z,7.13
2018-11-06T15:10:26.618Z,6.57
2018-11-06T15:13:30.728Z,6.30
2018-11-06T15:16:04.822Z,5.67
2018-11-06T15:18:38.961Z,6.77
2018-11-06T15:21:13.077Z,6.23
2018-11-06T15:23:48.392Z,6.40
2018-11-06T15:26:22.501Z,6.73
2018-11-06T15:28:57.330Z,7.13
2018-11-06T15:31:31.474Z,8.03
2018-11-06T15:34:05.619Z,8.00
2018-11-06T15:36:39.801Z,7.40
2018-11-06T15:39:14.697Z,10.07
2018-11-06T15:41:49.598Z,11.10
2018-11-06T15:44:23.866Z,6.80
2018-11-06T15:46:57.927Z,7.27
2018-11-06T15:49:32.039Z,6.70
2018-11-06T15:52:06.132Z,6.97
2018-11-06T15:54:40.381Z,6.30
2018-11-06T15:57:14.461Z,6.70
2018-11-06T15:59:48.489Z,6.87
2018-11-06T16:02:22.614Z,6.57
2018-11-06T16:04:56.626Z,7.60
2018-11-06T16:07:30.724Z,9.60
2018-11-06T16:10:05.583Z,9.30
2018-11-06T16:15:28.716Z,8.17
2018-11-06T16:18:08.743Z,8.87
2018-11-06T16:20:42.802Z,8.03
2018-11-06T16:23:32.542Z,7.53
2018-11-06T16:26:06.598Z,7.67
2018-11-06T16:28:41.732Z,9.40
2018-11-06T16:31:27.773Z,11.33
2018-11-06T16:34:06.012Z,10.30
2018-11-06T16:36:58.255Z,11.97
2018-11-06T16:39:41.866Z,11.47
2018-11-06T16:42:15.908Z,12.47
2018-11-06T16:44:50.968Z,13.43
2018-11-06T16:47:25.073Z,12.47
2018-11-06T16:50:18.102Z,12.57
2018-11-06T16:52:52.929Z,11.63
2018-11-06T16:55:28.215Z,13.07
2018-11-06T16:58:11.531Z,13.40
2018-11-06T17:00:53.062Z,12.83
2018-11-06T17:07:15.531Z,18.73
2018-11-06T17:09:49.460Z,14.43
2018-11-06T17:12:23.561Z,14.60
2018-11-06T17:14:57.576Z,14.83
2018-11-06T17:17:32.374Z,15.00
2018-11-06T17:20:06.556Z,15.20
2018-11-06T17:22:40.607Z,15.03
2018-11-06T17:25:20.004Z,15.77
2018-11-06T17:27:53.942Z,14.10
2018-11-06T17:30:28.807Z,15.27
2018-11-06T17:33:04.856Z,17.10
2018-11-06T17:35:38.838Z,15.77
2018-11-06T17:38:12.896Z,16.60
2018-11-06T17:40:47.060Z,17.07
2018-11-06T17:43:21.117Z,16.97
2018-11-06T17:49:01.450Z,16.73
2018-11-06T17:51:35.449Z,16.13
2018-11-06T17:54:10.446Z,17.97
2018-11-06T18:00:15.892Z,24.40
2018-11-06T18:02:50.128Z,19.07
2018-11-06T18:05:24.054Z,17.03
2018-11-06T18:07:58.205Z,16.87
2018-11-06T18:10:32.179Z,16.97
2018-11-06T18:16:13.004Z,15.60
2018-11-06T18:18:46.937Z,15.83
2018-11-06T18:21:21.819Z,16.63
2018-11-06T18:23:56.421Z,16.43
2018-11-06T18:26:30.381Z,17.17
2018-11-06T18:29:11.681Z,17.10
2018-11-06T18:31:46.580Z,16.63
2018-11-06T18:34:20.566Z,19.00
2018-11-06T18:36:54.471Z,16.83
2018-11-06T18:39:28.591Z,17.10
2018-11-06T18:42:02.743Z,16.03
2018-11-06T18:44:36.787Z,17.47
2018-11-06T18:47:10.926Z,18.23
2018-11-06T18:49:45.856Z,17.27
2018-11-06T18:52:19.819Z,18.73
2018-11-06T18:54:54.595Z,16.13
2018-11-06T18:57:28.747Z,15.57
2018-11-06T19:00:02.847Z,14.60
2018-11-06T19:02:36.765Z,15.93
2018-11-06T19:05:11.691Z,14.93
2018-11-06T19:07:45.610Z,15.73
2018-11-06T19:10:19.590Z,15.73
2018-11-06T19:12:53.828Z,15.53
2018-11-06T19:15:28.002Z,15.83
2018-11-06T19:18:01.978Z,15.87
2018-11-06T19:20:36.080Z,15.73
2018-11-06T19:23:10.680Z,16.27
2018-11-06T19:25:44.923Z,18.27
2018-11-06T19:28:20.701Z,19.67
2018-11-06T19:30:54.775Z,19.10
2018-11-06T19:33:29.518Z,19.97
2018-11-06T19:36:03.678Z,20.17
2018-11-06T19:38:37.813Z,19.07
2018-11-06T19:41:11.877Z,19.40
2018-11-06T19:43:45.790Z,20.93
2018-11-06T19:46:19.872Z,20.30
2018-11-06T19:48:54.010Z,20.73
2018-11-06T19:51:28.040Z,19.43
2018-11-06T19:54:02.025Z,19.23
2018-11-06T19:56:36.072Z,19.77
2018-11-06T19:59:10.102Z,19.70
2018-11-06T20:01:44.222Z,20.80
2018-11-06T20:04:18.173Z,21.00
2018-11-06T20:06:52.285Z,19.93
2018-11-06T20:09:26.386Z,20.50
2018-11-06T20:12:01.340Z,19.37
2018-11-06T20:14:35.310Z,20.27
2018-11-06T20:17:10.187Z,20.17
2018-11-06T20:19:44.310Z,19.50
2018-11-06T20:22:18.474Z,19.50
2018-11-06T20:24:52.393Z,20.97
2018-11-06T20:27:27.195Z,18.83
2018-11-06T20:30:02.153Z,19.97
2018-11-06T20:32:36.177Z,19.97
2018-11-06T20:35:10.970Z,20.13
2018-11-06T20:37:45.892Z,18.10
2018-11-06T20:40:19.892Z,17.67
2018-11-06T20:42:53.972Z,18.67
2018-11-06T20:45:28.151Z,17.20
2018-11-06T20:48:02.311Z,17.93
2018-11-06T20:50:36.473Z,16.83
2018-11-06T20:53:10.634Z,16.87
2018-11-06T20:55:45.803Z,16.80
2018-11-06T20:58:19.800Z,17.30
2018-11-06T21:00:53.836Z,16.83
2018-11-06T21:03:27.887Z,15.87
2018-11-06T21:06:02.018Z,15.73
2018-11-06T21:08:36.845Z,15.80
2018-11-06T21:11:10.905Z,15.97
2018-11-06T21:13:45.070Z,16.37
2018-11-06T21:16:18.941Z,15.73
2018-11-06T21:18:53.093Z,15.57
2018-11-06T21:21:27.210Z,15.97
2018-11-06T21:24:01.238Z,16.60
2018-11-06T21:26:35.221Z,16.07
2018-11-06T21:29:10.447Z,15.13
2018-11-06T21:31:46.773Z,13.40
2018-11-06T21:34:22.842Z,14.93
2018-11-06T21:36:58.168Z,15.70
2018-11-06T21:39:33.406Z,13.77
2018-11-06T21:42:10.076Z,14.87
2018-11-06T21:44:45.214Z,13.93
2018-11-06T21:47:20.011Z,13.80
2018-11-06T21:49:56.886Z,14.30
2018-11-06T21:52:30.789Z,13.20
2018-11-06T21:55:04.928Z,14.33
2018-11-06T21:57:39.023Z,13.70
2018-11-06T22:00:13.188Z,13.23
2018-11-06T22:02:48.014Z,14.07
2018-11-06T22:05:23.134Z,12.90
2018-11-06T22:07:59.946Z,13.87
2018-11-06T22:10:35.031Z,14.47
2018-11-06T22:13:09.067Z,12.27
2018-11-06T22:15:43.166Z,12.30
2018-11-06T22:18:17.334Z,13.40
2018-11-06T22:20:52.190Z,13.77
2018-11-06T22:23:27.014Z,12.93
2018-11-06T22:26:02.017Z,12.77
2018-11-06T22:28:35.914Z,11.37
2018-11-06T22:31:10.073Z,12.70
2018-11-06T22:33:44.204Z,11.53
2018-11-06T22:36:18.281Z,13.00
2018-11-06T22:38:52.406Z,13.07
2018-11-06T22:41:26.362Z,12.00
2018-11-06T22:44:00.398Z,12.70
2018-11-06T22:46:34.417Z,12.90
2018-11-06T22:49:08.532Z,12.23
2018-11-06T22:51:42.447Z,12.40
2018-11-06T22:54:16.489Z,12.67
2018-11-06T22:56:58.377Z,11.10
2018-11-06T22:59:32.492Z,11.63
2018-11-06T23:02:06.674Z,11.60
2018-11-06T23:04:40.778Z,11.40
2018-11-06T23:07:15.801Z,11.67
2018-11-06T23:09:49.846Z,11.20
2018-11-06T23:12:23.949Z,10.87
2018-11-06T23:14:58.304Z,10.80
2018-11-06T23:17:32.342Z,10.73
2018-11-06T23:20:06.509Z,11.47
2018-11-06T23:22:41.359Z,11.00
2018-11-06T23:25:15.456Z,11.70
2018-11-06T23:27:54.405Z,11.67
2018-11-06T23:30:28.465Z,11.60
2018-11-06T23:33:02.606Z,10.80
2018-11-06T23:35:36.743Z,11.00
2018-11-06T23:38:10.725Z,10.93
2018-11-06T23:40:44.768Z,10.47
2018-11-06T23:43:18.815Z,10.37
2018-11-06T23:45:52.841Z,10.20
2018-11-06T23:48:27.719Z,10.20
2018-11-06T23:51:01.824Z,10.77
2018-11-06T23:53:35.917Z,9.43
2018-11-06T23:56:09.993Z,10.67
2018-11-06T23:58:43.975Z,9.80
